Time;durP1;ratioP1;P1;durP2;ratioP2;P2;SDS_P1;SDS_P2;PMS_P1;PMS_P2;Temp;Humidity;BMP_temperature;BMP_pressure;BME280_temperature;BME280_humidity;BME280_pressure;Samples;Min_cycle;Max_cycle;Signal;HPM_P1;HPM_P2
2023/03/29 00:01:51;;;;;;;11.03;9.50;;;5.00;1.00;;;;;;5033090;28;20467;-73
2023/03/29 00:04:18;;;;;;;10.47;9.43;;;5.00;1.00;;;;;;5034332;28;20177;-69
2023/03/29 00:06:47;;;;;;;9.47;8.63;;;4.90;1.00;;;;;;5042221;28;20845;-72
2023/03/29 00:09:14;;;;;;;10.20;9.20;;;4.90;1.00;;;;;;5032822;28;20445;-73
2023/03/29 00:11:40;;;;;;;12.57;10.23;;;4.90;1.00;;;;;;5038658;28;21011;-68
2023/03/29 00:14:06;;;;;;;13.23;10.43;;;4.80;1.00;;;;;;5032880;28;20577;-69
2023/03/29 00:16:31;;;;;;;13.67;11.37;;;4.80;1.00;;;;;;5032823;28;20803;-69
2023/03/29 00:18:57;;;;;;;11.43;10.20;;;4.70;1.00;;;;;;5045143;28;20274;-69
2023/03/29 00:21:23;;;;;;;12.30;11.07;;;4.70;1.00;;;;;;5030853;28;20200;-73
2023/03/29 00:23:49;;;;;;;17.93;11.60;;;4.70;1.00;;;;;;5030203;28;20168;-74
2023/03/29 00:26:14;;;;;;;14.27;12.00;;;4.60;1.00;;;;;;5033192;28;20411;-69
2023/03/29 00:28:40;;;;;;;16.63;11.10;;;4.60;1.00;;;;;;5031359;28;20267;-68
2023/03/29 00:31:08;;;;;;;15.97;11.33;;;4.60;3.50;;;;;;5031508;28;20195;-72
2023/03/29 00:33:34;;;;;;;15.80;12.33;;;4.60;7.60;;;;;;5036152;28;20180;-72
2023/03/29 00:36:00;;;;;;;12.87;9.67;;;4.50;11.40;;;;;;5046722;28;20421;-73
2023/03/29 00:38:26;;;;;;;17.43;12.07;;;4.40;23.20;;;;;;5052508;28;20394;-69
2023/03/29 00:40:52;;;;;;;19.03;11.90;;;4.40;41.70;;;;;;5031845;28;20536;-69
2023/03/29 00:43:18;;;;;;;16.07;12.20;;;4.30;54.30;;;;;;5032908;28;20605;-73
2023/03/29 00:45:43;;;;;;;13.53;12.20;;;4.30;72.20;;;;;;5033014;28;20164;-69
2023/03/29 00:48:16;;;;;;;29.93;15.03;;;4.30;84.70;;;;;;5033039;28;20214;-73
2023/03/29 00:50:53;;;;;;;15.47;12.27;;;4.40;90.50;;;;;;5031662;28;20183;-68
2023/03/29 00:53:25;;;;;;;24.87;14.47;;;4.20;90.50;;;;;;5030439;28;20457;-69
2023/03/29 00:56:03;;;;;;;17.10;12.70;;;4.20;90.40;;;;;;5032777;28;20923;-71
2023/03/29 00:58:41;;;;;;;14.70;13.10;;;4.20;99.90;;;;;;5033335;28;20470;-70
2023/03/29 01:01:14;;;;;;;14.97;13.13;;;4.10;99.90;;;;;;5035265;28;20455;-73
2023/03/29 01:03:46;;;;;;;16.20;12.80;;;4.00;99.90;;;;;;5036817;28;20430;-73
2023/03/29 01:06:14;;;;;;;14.80;12.90;;;4.00;99.90;;;;;;5037865;28;20484;-74
2023/03/29 01:08:52;;;;;;;15.30;13.67;;;4.00;99.90;;;;;;5037103;28;20505;-69
2023/03/29 01:11:23;;;;;;;15.70;12.70;;;4.00;99.90;;;;;;5035688;28;20456;-73
2023/03/29 01:13:57;;;;;;;21.10;13.90;;;4.00;99.90;;;;;;5036609;28;20430;-68
2023/03/29 01:16:27;;;;;;;25.67;14.13;;;4.00;99.90;;;;;;5035596;28;20441;-73
2023/03/29 01:18:53;;;;;;;22.80;15.37;;;4.00;99.90;;;;;;5039296;28;20497;-71
2023/03/29 01:21:36;;;;;;;19.17;14.30;;;4.00;99.90;;;;;;5035516;28;20922;-73
2023/03/29 01:24:31;;;;;;;25.17;15.90;;;3.90;99.90;;;;;;5039740;28;20764;-67
2023/03/29 01:27:01;;;;;;;17.83;13.17;;;4.00;99.90;;;;;;5054418;28;20417;-70
2023/03/29 01:29:59;;;;;;;19.77;14.60;;;3.90;99.90;;;;;;5050021;28;20421;-68
2023/03/29 01:32:35;;;;;;;15.13;12.83;;;3.80;99.90;;;;;;5035334;28;20512;-72
2023/03/29 01:35:02;;;;;;;18.70;14.03;;;3.90;99.90;;;;;;5035886;28;20390;-67
2023/03/29 01:37:51;;;;;;;18.67;13.53;;;3.90;99.90;;;;;;5036259;28;20406;-68
2023/03/29 01:40:17;;;;;;;18.73;13.40;;;3.90;99.90;;;;;;5035004;28;20950;-73
2023/03/29 01:43:07;;;;;;;15.07;12.30;;;3.90;99.90;;;;;;5050476;28;20440;-72
2023/03/29 01:45:42;;;;;;;19.67;15.40;;;3.90;99.90;;;;;;5056024;28;20160;-70
2023/03/29 01:48:17;;;;;;;22.40;14.90;;;3.90;99.90;;;;;;5056090;28;20448;-73
2023/03/29 01:50:47;;;;;;;18.63;14.43;;;3.90;99.90;;;;;;5053993;28;20487;-68
2023/03/29 01:53:16;;;;;;;17.37;14.60;;;4.00;99.90;;;;;;5054604;28;20425;-67
2023/03/29 01:55:48;;;;;;;21.77;14.83;;;3.90;99.90;;;;;;5054540;28;20498;-68
2023/03/29 01:58:17;;;;;;;21.10;14.87;;;4.00;99.90;;;;;;5054603;28;20418;-69
2023/03/29 02:00:44;;;;;;;20.43;14.70;;;4.00;99.90;;;;;;5039571;28;20460;-73
2023/03/29 02:03:13;;;;;;;22.33;15.30;;;3.90;99.90;;;;;;5035579;28;20463;-73
2023/03/29 02:05:41;;;;;;;17.17;14.43;;;3.90;99.90;;;;;;5033913;28;20518;-73
2023/03/29 02:08:09;;;;;;;19.20;15.37;;;4.00;99.90;;;;;;5037238;28;20465;-68
2023/03/29 02:10:36;;;;;;;20.50;14.63;;;4.00;99.90;;;;;;5032110;28;20450;-70
2023/03/29 02:13:03;;;;;;;26.47;13.97;;;4.00;99.90;;;;;;5032769;28;20951;-69
2023/03/29 02:15:29;;;;;;;26.80;14.90;;;4.10;99.90;;;;;;5033456;28;20445;-73
2023/03/29 02:17:55;;;;;;;19.53;13.87;;;4.10;99.90;;;;;;5035034;28;20422;-73
2023/03/29 02:20:37;;;;;;;18.63;13.90;;;4.10;99.90;;;;;;5035528;28;20195;-68
2023/03/29 02:23:16;;;;;;;21.77;14.80;;;4.20;99.90;;;;;;5033720;28;20454;-69
2023/03/29 02:25:44;;;;;;;21.07;14.37;;;4.10;99.90;;;;;;5033655;28;20791;-69
2023/03/29 02:28:10;;;;;;;25.70;16.07;;;4.10;99.90;;;;;;5032622;28;22675;-73
2023/03/29 02:31:09;;;;;;;17.90;13.60;;;4.10;99.90;;;;;;5031230;28;20964;-68
2023/03/29 02:33:44;;;;;;;18.37;14.07;;;4.20;99.90;;;;;;5034884;28;20450;-71
2023/03/29 02:36:27;;;;;;;18.20;14.53;;;4.10;99.90;;;;;;5032366;28;20446;-73
2023/03/29 02:38:54;;;;;;;18.50;14.40;;;4.10;99.90;;;;;;5033021;28;20451;-70
2023/03/29 02:41:22;;;;;;;20.47;14.30;;;4.20;99.90;;;;;;5032490;28;20475;-72
2023/03/29 02:43:49;;;;;;;21.37;13.63;;;4.10;99.90;;;;;;5039317;28;20572;-72
2023/03/29 02:46:17;;;;;;;17.73;14.30;;;4.20;99.90;;;;;;5032893;28;20451;-72
2023/03/29 02:48:47;;;;;;;20.63;13.80;;;4.10;99.90;;;;;;5033240;28;20468;-72
2023/03/29 02:51:23;;;;;;;18.63;12.90;;;4.10;99.90;;;;;;4978005;28;1563009;-69
2023/03/29 02:53:59;;;;;;;17.10;13.27;;;4.10;99.90;;;;;;5034843;28;20648;-68
2023/03/29 02:56:24;;;;;;;22.17;14.23;;;4.00;99.90;;;;;;5034196;28;20555;-73
2023/03/29 02:58:50;;;;;;;18.50;13.93;;;4.10;99.90;;;;;;5034271;28;20939;-72
2023/03/29 03:01:17;;;;;;;16.90;13.87;;;4.00;99.90;;;;;;5033074;28;20951;-72
2023/03/29 03:03:43;;;;;;;18.40;13.37;;;4.00;99.90;;;;;;5034842;28;20260;-68
2023/03/29 03:06:11;;;;;;;20.33;14.47;;;4.00;99.90;;;;;;5034564;28;20403;-74
2023/03/29 03:08:37;;;;;;;20.73;13.97;;;4.00;99.90;;;;;;5035603;28;20519;-69
2023/03/29 03:11:02;;;;;;;16.67;13.80;;;4.00;99.90;;;;;;5031993;28;20441;-69
2023/03/29 03:13:28;;;;;;;15.47;12.93;;;4.00;99.90;;;;;;5034037;28;20454;-69
2023/03/29 03:15:54;;;;;;;19.63;14.73;;;4.00;99.90;;;;;;5032751;28;20273;-72
2023/03/29 03:18:19;;;;;;;19.77;12.87;;;4.10;99.90;;;;;;5037025;28;20178;-73
2023/03/29 03:21:00;;;;;;;22.63;14.20;;;4.10;99.90;;;;;;5040675;28;20199;-67
2023/03/29 03:23:27;;;;;;;19.00;13.83;;;4.10;99.90;;;;;;5054160;28;20528;-70
2023/03/29 03:25:54;;;;;;;18.70;13.90;;;4.10;99.90;;;;;;5038148;28;20418;-72
2023/03/29 03:28:21;;;;;;;20.27;14.20;;;4.20;99.90;;;;;;5034045;28;20414;-69
2023/03/29 03:30:48;;;;;;;21.47;13.13;;;4.20;99.90;;;;;;5033418;28;20416;-69
2023/03/29 03:33:14;;;;;;;17.40;13.70;;;4.20;99.90;;;;;;5033606;28;20518;-72
2023/03/29 03:35:40;;;;;;;19.37;13.40;;;4.20;99.90;;;;;;5036781;28;20880;-72
2023/03/29 03:38:06;;;;;;;25.80;13.23;;;4.20;99.90;;;;;;5044300;28;20179;-72
2023/03/29 03:40:32;;;;;;;16.97;13.40;;;4.20;99.90;;;;;;5051261;28;20952;-69
2023/03/29 03:42:57;;;;;;;15.80;12.13;;;4.20;99.90;;;;;;5034271;28;20535;-73
2023/03/29 03:45:23;;;;;;;16.07;12.67;;;4.10;99.90;;;;;;5032366;28;20443;-69
2023/03/29 03:47:50;;;;;;;17.23;12.87;;;4.10;99.90;;;;;;5032001;28;20177;-74
2023/03/29 03:50:16;;;;;;;31.57;13.30;;;4.20;99.90;;;;;;5031974;28;20222;-73
2023/03/29 03:52:42;;;;;;;23.20;13.20;;;4.10;99.90;;;;;;5033057;28;20503;-72
2023/03/29 03:55:08;;;;;;;17.77;12.50;;;4.10;99.90;;;;;;5033246;28;20434;-72
2023/03/29 03:57:36;;;;;;;17.10;12.57;;;4.10;99.90;;;;;;5033123;28;20659;-73
2023/03/29 04:00:07;;;;;;;15.47;11.93;;;4.10;99.90;;;;;;5034458;28;20456;-72
2023/03/29 04:02:33;;;;;;;16.40;11.77;;;4.10;99.90;;;;;;5042921;28;20537;-72
2023/03/29 04:05:02;;;;;;;17.97;12.37;;;4.10;99.90;;;;;;5033018;28;20866;-72
2023/03/29 04:07:27;;;;;;;19.93;12.13;;;4.10;99.90;;;;;;5033735;28;20512;-69
2023/03/29 04:09:53;;;;;;;17.20;13.30;;;4.10;99.90;;;;;;5035548;28;20438;-74
2023/03/29 04:12:20;;;;;;;21.63;12.90;;;4.10;99.90;;;;;;5032672;28;20212;-71
2023/03/29 04:14:47;;;;;;;16.20;11.53;;;4.10;99.90;;;;;;5032109;28;20431;-73
2023/03/29 04:17:12;;;;;;;21.00;11.77;;;4.20;99.90;;;;;;5035220;28;21018;-72
2023/03/29 04:19:39;;;;;;;20.87;12.43;;;4.10;99.90;;;;;;5035764;28;20509;-71
2023/03/29 04:22:04;;;;;;;13.90;11.30;;;4.10;99.90;;;;;;5031984;28;20707;-72
2023/03/29 04:24:30;;;;;;;18.00;10.80;;;4.10;99.90;;;;;;5032616;28;20448;-69
2023/03/29 04:26:56;;;;;;;14.07;11.07;;;4.20;99.90;;;;;;5032544;28;20581;-70
2023/03/29 04:29:21;;;;;;;15.40;10.70;;;4.10;99.90;;;;;;5032206;28;20228;-72
2023/03/29 04:31:47;;;;;;;15.57;10.93;;;4.20;99.90;;;;;;5031434;28;20197;-73
2023/03/29 04:34:13;;;;;;;14.40;10.93;;;4.10;99.90;;;;;;5033951;28;20179;-70
2023/03/29 04:36:39;;;;;;;16.63;11.40;;;4.10;99.90;;;;;;5030603;28;20629;-73
2023/03/29 04:39:06;;;;;;;13.90;10.60;;;4.10;99.90;;;;;;5031292;28;20194;-72
2023/03/29 04:41:33;;;;;;;17.47;12.53;;;4.20;99.90;;;;;;5031483;28;20588;-70
2023/03/29 04:44:01;;;;;;;17.70;10.93;;;4.10;99.90;;;;;;5031881;28;20570;-72
2023/03/29 04:46:27;;;;;;;15.60;10.57;;;4.10;99.90;;;;;;5035748;28;20462;-69
2023/03/29 04:48:53;;;;;;;14.03;11.00;;;4.10;99.90;;;;;;5042526;28;20439;-73
2023/03/29 04:51:21;;;;;;;14.57;11.50;;;4.10;99.90;;;;;;5040112;28;20453;-70
2023/03/29 04:53:48;;;;;;;13.57;10.60;;;4.00;99.90;;;;;;5032976;28;20391;-71
2023/03/29 04:56:15;;;;;;;14.53;10.40;;;4.00;99.90;;;;;;5044104;28;20494;-69
2023/03/29 04:58:43;;;;;;;13.37;10.70;;;4.10;99.90;;;;;;5032894;28;20756;-69
2023/03/29 05:01:09;;;;;;;20.57;11.27;;;4.10;99.90;;;;;;5042014;28;20452;-71
2023/03/29 05:03:35;;;;;;;15.40;11.13;;;4.10;99.90;;;;;;5047152;28;20427;-73
2023/03/29 05:06:05;;;;;;;14.47;10.60;;;4.10;99.90;;;;;;5045099;28;20762;-71
2023/03/29 05:08:33;;;;;;;14.80;10.33;;;4.10;99.90;;;;;;5052126;28;20402;-68
2023/03/29 05:10:59;;;;;;;17.67;11.97;;;4.20;99.90;;;;;;5031849;28;20411;-68
2023/03/29 05:13:24;;;;;;;13.73;10.53;;;4.20;99.90;;;;;;5043729;28;20485;-71
2023/03/29 05:15:50;;;;;;;15.67;10.60;;;4.30;99.90;;;;;;5052104;28;20648;-68
2023/03/29 05:18:16;;;;;;;14.07;9.60;;;4.20;99.90;;;;;;5052633;28;20170;-70
2023/03/29 05:20:42;;;;;;;10.83;9.00;;;4.20;99.90;;;;;;5052069;28;20192;-71
2023/03/29 05:23:08;;;;;;;12.13;9.87;;;4.30;99.90;;;;;;5052892;28;20190;-71
2023/03/29 05:25:34;;;;;;;18.37;9.43;;;4.30;99.90;;;;;;5032684;28;20182;-70
2023/03/29 05:28:01;;;;;;;14.87;9.43;;;4.30;99.90;;;;;;5032636;28;20426;-72
2023/03/29 05:30:26;;;;;;;16.90;9.43;;;4.30;99.90;;;;;;5031655;28;20413;-72
2023/03/29 05:32:52;;;;;;;10.10;8.63;;;4.30;99.90;;;;;;5031881;28;20428;-72
2023/03/29 05:35:18;;;;;;;11.30;9.33;;;4.30;99.90;;;;;;5032459;28;20544;-70
2023/03/29 05:37:46;;;;;;;10.77;8.70;;;4.30;99.90;;;;;;5032584;28;20417;-70
2023/03/29 05:40:12;;;;;;;13.10;9.30;;;4.30;99.90;;;;;;5031965;28;20437;-68
2023/03/29 05:42:37;;;;;;;13.17;8.10;;;4.30;99.90;;;;;;5032389;28;20508;-72
2023/03/29 05:45:04;;;;;;;20.97;9.23;;;4.30;99.90;;;;;;5034553;28;20456;-74
2023/03/29 05:47:30;;;;;;;11.30;7.90;;;4.30;99.90;;;;;;5036027;28;20163;-72
2023/03/29 05:49:56;;;;;;;12.60;8.73;;;4.30;99.90;;;;;;5034972;28;20896;-74
2023/03/29 05:52:22;;;;;;;11.60;8.60;;;4.40;99.90;;;;;;5035212;28;20440;-69
2023/03/29 05:54:48;;;;;;;9.00;8.10;;;4.40;99.90;;;;;;5035352;28;20180;-74
2023/03/29 05:57:13;;;;;;;12.73;8.27;;;4.40;99.90;;;;;;5039384;28;20552;-69
2023/03/29 05:59:39;;;;;;;18.40;9.87;;;4.30;99.90;;;;;;5033683;28;20211;-72
2023/03/29 06:02:05;;;;;;;18.43;8.63;;;4.40;99.90;;;;;;5036365;28;20266;-69
2023/03/29 06:04:32;;;;;;;14.40;8.30;;;4.30;99.90;;;;;;5036681;28;20175;-72
2023/03/29 06:07:00;;;;;;;10.80;7.50;;;4.40;99.90;;;;;;5036668;28;20438;-72
2023/03/29 06:09:26;;;;;;;13.67;7.60;;;4.40;99.90;;;;;;5035174;28;20445;-72
2023/03/29 06:11:55;;;;;;;9.77;7.20;;;4.40;99.90;;;;;;5034110;28;20472;-72
2023/03/29 06:14:22;;;;;;;11.13;7.43;;;4.40;99.90;;;;;;5035361;28;20437;-72
2023/03/29 06:16:48;;;;;;;9.90;6.80;;;4.40;99.90;;;;;;5035189;28;20759;-72
2023/03/29 06:19:14;;;;;;;8.17;6.67;;;4.40;99.90;;;;;;5040600;28;20446;-72
2023/03/29 06:21:40;;;;;;;13.10;7.20;;;4.50;99.90;;;;;;5033763;28;20463;-73
2023/03/29 06:24:05;;;;;;;9.53;7.23;;;4.50;99.90;;;;;;5034309;28;20645;-73
2023/03/29 06:26:31;;;;;;;8.17;6.43;;;4.60;99.90;;;;;;5033405;28;20487;-70
2023/03/29 06:28:57;;;;;;;6.90;6.20;;;4.60;99.90;;;;;;5034828;28;20186;-72
2023/03/29 06:31:23;;;;;;;13.50;6.50;;;4.70;99.90;;;;;;5035614;28;20683;-70
2023/03/29 06:33:49;;;;;;;7.53;6.77;;;4.70;99.90;;;;;;5034588;28;20639;-70
2023/03/29 06:36:15;;;;;;;10.90;6.50;;;4.70;99.90;;;;;;5034705;28;20434;-70
2023/03/29 06:38:42;;;;;;;7.53;6.63;;;4.70;99.90;;;;;;5034788;28;20805;-69
2023/03/29 06:41:09;;;;;;;9.97;6.73;;;4.80;99.90;;;;;;5033136;28;20467;-69
2023/03/29 06:43:36;;;;;;;7.57;6.87;;;4.90;99.90;;;;;;5034362;28;20906;-72
2023/03/29 06:46:03;;;;;;;8.70;5.97;;;4.90;99.90;;;;;;5034161;28;20484;-69
2023/03/29 06:48:28;;;;;;;10.53;7.90;;;4.90;99.90;;;;;;5034485;28;20471;-72
2023/03/29 06:50:55;;;;;;;9.73;7.10;;;4.90;99.90;;;;;;5035895;28;20446;-73
2023/03/29 06:53:21;;;;;;;14.97;7.07;;;4.80;99.90;;;;;;5033694;28;20459;-69
2023/03/29 06:55:48;;;;;;;9.53;6.83;;;4.90;99.90;;;;;;5033031;28;20437;-72
2023/03/29 06:58:14;;;;;;;7.80;5.80;;;4.90;99.90;;;;;;5034251;28;20169;-71
2023/03/29 07:00:41;;;;;;;13.73;6.93;;;4.90;99.90;;;;;;5033062;28;20460;-71
2023/03/29 07:03:12;;;;;;;6.93;6.27;;;4.90;99.90;;;;;;5035293;28;20482;-72
2023/03/29 07:05:41;;;;;;;7.50;6.90;;;5.00;99.90;;;;;;5033730;28;20506;-69
2023/03/29 07:10:38;;;;;;;7.70;6.90;;;5.10;99.90;;;;;;5035879;28;20435;-69
2023/03/29 07:13:05;;;;;;;9.13;7.97;;;5.20;99.90;;;;;;5033960;28;20450;-72
2023/03/29 07:15:32;;;;;;;13.27;8.10;;;5.30;99.90;;;;;;5033785;28;20433;-74
2023/03/29 07:17:58;;;;;;;10.47;7.87;;;5.30;99.90;;;;;;5034011;28;20398;-69
2023/03/29 07:20:25;;;;;;;10.90;7.90;;;5.30;99.90;;;;;;5036083;28;20571;-69
2023/03/29 07:22:52;;;;;;;14.07;9.37;;;5.40;99.90;;;;;;5040265;28;20457;-73
2023/03/29 07:25:20;;;;;;;9.10;7.47;;;5.40;99.90;;;;;;5034278;28;20489;-72
2023/03/29 07:27:46;;;;;;;9.07;7.93;;;5.50;99.90;;;;;;5042026;28;20409;-74
2023/03/29 07:30:15;;;;;;;10.60;8.10;;;5.60;99.90;;;;;;5047208;28;20426;-71
2023/03/29 07:32:43;;;;;;;12.30;9.00;;;5.60;99.90;;;;;;5037452;28;20461;-70
2023/03/29 07:35:11;;;;;;;16.23;8.33;;;5.60;99.90;;;;;;5053458;28;20409;-71
2023/03/29 07:37:36;;;;;;;11.70;9.37;;;5.50;99.90;;;;;;5047523;28;20839;-72
2023/03/29 07:40:17;;;;;;;11.40;8.17;;;5.50;99.90;;;;;;5034250;28;20416;-74
2023/03/29 07:42:44;;;;;;;18.10;9.90;;;5.60;99.90;;;;;;5033963;28;20476;-72
2023/03/29 07:45:12;;;;;;;9.20;8.30;;;5.60;99.90;;;;;;5033833;28;20395;-70
2023/03/29 07:47:42;;;;;;;13.20;9.27;;;5.70;99.90;;;;;;5033759;28;20402;-72
2023/03/29 07:50:08;;;;;;;11.77;8.83;;;5.70;99.90;;;;;;5042048;28;20409;-69
2023/03/29 07:52:37;;;;;;;12.47;9.63;;;5.70;99.90;;;;;;5039915;28;20433;-72
2023/03/29 07:55:03;;;;;;;9.47;8.47;;;5.80;99.90;;;;;;5037239;28;20433;-72
2023/03/29 07:57:29;;;;;;;11.00;9.80;;;5.80;99.90;;;;;;5032596;28;20930;-72
2023/03/29 07:59:55;;;;;;;14.47;8.97;;;5.90;99.90;;;;;;5041435;28;20517;-71
2023/03/29 08:02:21;;;;;;;15.27;10.27;;;6.00;99.90;;;;;;5033090;28;20210;-69
2023/03/29 08:04:48;;;;;;;16.80;9.97;;;6.10;99.90;;;;;;5038485;28;20302;-73
2023/03/29 08:07:17;;;;;;;14.40;10.17;;;6.10;99.90;;;;;;5035420;28;20499;-72
2023/03/29 08:09:43;;;;;;;21.90;12.53;;;6.10;99.90;;;;;;5032936;28;20494;-69
2023/03/29 08:12:09;;;;;;;21.20;9.77;;;6.10;99.90;;;;;;5040832;28;20962;-70
2023/03/29 08:14:35;;;;;;;15.20;10.80;;;6.20;99.90;;;;;;5033929;28;20453;-74
2023/03/29 08:17:01;;;;;;;18.80;11.47;;;6.20;99.90;;;;;;5032267;28;20183;-70
2023/03/29 08:19:27;;;;;;;16.10;11.50;;;6.30;99.90;;;;;;5035146;28;20185;-76
2023/03/29 08:21:53;;;;;;;11.23;9.87;;;6.40;99.90;;;;;;5052171;28;20457;-73
2023/03/29 08:24:19;;;;;;;16.03;10.27;;;6.40;99.90;;;;;;5044220;28;20492;-70
2023/03/29 08:26:44;;;;;;;13.70;10.97;;;6.50;99.90;;;;;;5032150;28;20214;-73
2023/03/29 08:29:10;;;;;;;18.07;11.30;;;6.50;99.90;;;;;;5031565;28;20175;-74
2023/03/29 08:31:36;;;;;;;12.20;10.40;;;6.50;99.90;;;;;;5032190;28;20187;-70
2023/03/29 08:34:02;;;;;;;13.00;10.47;;;6.40;99.90;;;;;;5034183;28;20445;-71
2023/03/29 08:36:28;;;;;;;17.00;10.07;;;6.40;99.90;;;;;;5031896;28;20437;-73
2023/03/29 08:38:54;;;;;;;14.90;10.87;;;6.40;99.90;;;;;;5030410;28;20187;-70
2023/03/29 08:41:34;;;;;;;14.63;9.77;;;6.40;99.90;;;;;;5031598;28;20280;-70
2023/03/29 08:44:06;;;;;;;15.73;9.33;;;6.50;99.90;;;;;;5032563;28;20459;-73
2023/03/29 08:46:42;;;;;;;16.07;10.50;;;6.50;99.90;;;;;;5033008;28;20402;-70
2023/03/29 08:49:09;;;;;;;16.50;11.60;;;6.50;99.90;;;;;;5032651;28;20426;-70
2023/03/29 08:51:39;;;;;;;13.83;10.33;;;6.60;99.90;;;;;;5030280;28;21039;-70
2023/03/29 08:54:11;;;;;;;10.60;9.03;;;6.50;99.90;;;;;;5031651;28;20438;-71
2023/03/29 08:56:39;;;;;;;14.40;11.50;;;6.60;99.90;;;;;;5031437;28;20579;-73
2023/03/29 08:59:14;;;;;;;14.13;11.43;;;6.60;99.90;;;;;;5032125;28;20501;-72
2023/03/29 09:01:41;;;;;;;18.80;11.10;;;6.70;99.90;;;;;;5030992;28;20863;-71
2023/03/29 09:04:16;;;;;;;12.60;10.80;;;6.70;99.90;;;;;;5032710;28;20968;-71
2023/03/29 09:06:41;;;;;;;12.43;10.90;;;6.80;99.90;;;;;;5031809;28;20503;-73
2023/03/29 09:09:31;;;;;;;13.30;11.90;;;6.80;99.90;;;;;;5035201;28;20903;-70
2023/03/29 09:12:22;;;;;;;13.10;11.13;;;6.90;99.90;;;;;;5032743;28;20212;-70
2023/03/29 09:14:51;;;;;;;12.47;11.10;;;7.00;99.90;;;;;;5031493;28;20485;-73
2023/03/29 09:17:23;;;;;;;15.90;10.60;;;6.90;99.90;;;;;;5032131;28;20609;-71
2023/03/29 09:20:14;;;;;;;17.97;10.47;;;7.00;99.90;;;;;;5037146;28;20434;-73
2023/03/29 09:22:58;;;;;;;16.00;11.50;;;7.00;99.90;;;;;;5039765;28;20454;-72
2023/03/29 09:25:42;;;;;;;11.73;10.20;;;6.90;99.90;;;;;;5055611;28;20419;-73
2023/03/29 09:28:18;;;;;;;14.80;13.30;;;6.90;99.90;;;;;;5047925;28;20414;-72
2023/03/29 09:31:04;;;;;;;16.20;10.53;;;7.00;99.90;;;;;;5035098;28;20406;-70
2023/03/29 09:33:43;;;;;;;12.53;11.23;;;7.00;99.90;;;;;;5036116;28;20429;-71
2023/03/29 09:36:16;;;;;;;14.17;10.63;;;6.90;99.90;;;;;;5036288;28;20402;-70
2023/03/29 09:38:46;;;;;;;16.60;11.60;;;6.90;99.90;;;;;;5036824;28;20381;-71
2023/03/29 09:41:41;;;;;;;15.47;11.53;;;6.90;99.90;;;;;;5051891;28;20416;-72
2023/03/29 09:44:17;;;;;;;13.30;10.53;;;6.80;99.90;;;;;;5056040;28;20898;-71
2023/03/29 09:46:48;;;;;;;14.87;10.93;;;6.90;99.90;;;;;;5056068;28;20412;-71
2023/03/29 09:49:20;;;;;;;13.90;10.50;;;6.80;99.90;;;;;;5055706;28;20732;-70
2023/03/29 09:51:48;;;;;;;14.50;10.70;;;6.90;99.90;;;;;;5052838;28;21036;-69
2023/03/29 09:54:14;;;;;;;16.83;11.13;;;7.00;99.90;;;;;;5044669;28;20388;-68
2023/03/29 09:56:40;;;;;;;14.20;11.03;;;7.00;99.90;;;;;;5043217;28;20809;-69
2023/03/29 09:59:09;;;;;;;18.77;10.03;;;7.00;99.90;;;;;;5049648;28;20441;-68
2023/03/29 10:01:45;;;;;;;17.60;11.50;;;7.00;99.90;;;;;;5036702;28;20481;-69
2023/03/29 10:04:12;;;;;;;14.47;11.80;;;6.90;99.90;;;;;;5035879;28;20400;-72
2023/03/29 10:06:46;;;;;;;17.57;11.50;;;6.90;99.90;;;;;;5036252;28;20448;-69
2023/03/29 10:09:23;;;;;;;13.40;11.07;;;7.00;99.90;;;;;;5035774;28;20405;-69
2023/03/29 10:11:57;;;;;;;15.97;10.70;;;7.00;99.90;;;;;;5037430;28;20458;-68
2023/03/29 10:14:34;;;;;;;12.20;9.63;;;7.00;99.90;;;;;;5035659;28;20379;-73
2023/03/29 10:17:03;;;;;;;13.17;10.13;;;7.10;99.90;;;;;;5036189;28;20455;-69
2023/03/29 10:19:35;;;;;;;14.37;11.10;;;7.10;99.90;;;;;;5038061;28;20448;-74
2023/03/29 10:22:11;;;;;;;17.50;10.20;;;7.20;99.90;;;;;;5034254;28;20445;-71
2023/03/29 10:24:36;;;;;;;15.77;10.50;;;7.20;99.90;;;;;;5035319;28;20406;-70
2023/03/29 10:27:08;;;;;;;11.60;9.53;;;7.20;99.90;;;;;;5033866;28;20491;-73
2023/03/29 10:29:37;;;;;;;14.00;10.53;;;7.20;99.90;;;;;;5034620;28;20168;-70
2023/03/29 10:32:17;;;;;;;13.60;10.17;;;7.20;99.90;;;;;;5033710;28;20457;-72
2023/03/29 10:34:46;;;;;;;14.00;11.13;;;7.30;99.90;;;;;;5047983;28;20823;-75
2023/03/29 10:37:15;;;;;;;23.53;11.60;;;7.30;99.90;;;;;;5034848;28;20433;-73
2023/03/29 10:39:41;;;;;;;13.23;10.10;;;7.40;99.90;;;;;;5034094;28;20395;-74
2023/03/29 10:42:13;;;;;;;14.73;10.43;;;7.40;99.90;;;;;;5033970;28;20424;-71
2023/03/29 10:44:40;;;;;;;11.40;9.70;;;7.50;99.90;;;;;;5034552;28;20391;-73
2023/03/29 10:47:15;;;;;;;13.97;9.90;;;7.40;99.90;;;;;;5035070;28;20452;-73
2023/03/29 10:49:43;;;;;;;15.43;10.63;;;7.50;99.90;;;;;;5033697;28;20789;-70
2023/03/29 10:52:11;;;;;;;12.60;10.20;;;7.50;99.90;;;;;;5032962;28;20878;-73
2023/03/29 10:54:37;;;;;;;13.63;10.77;;;7.50;99.90;;;;;;5034404;28;20907;-74
2023/03/29 10:57:10;;;;;;;15.37;10.33;;;7.60;99.90;;;;;;5034605;28;20393;-73
2023/03/29 10:59:48;;;;;;;10.37;8.17;;;7.60;99.90;;;;;;5033906;28;20179;-74
2023/03/29 11:02:13;;;;;;;14.83;10.67;;;7.60;99.90;;;;;;5039374;28;20529;-70
2023/03/29 11:04:55;;;;;;;12.20;9.60;;;7.60;99.90;;;;;;5037407;28;20551;-73
2023/03/29 11:07:46;;;;;;;12.10;10.53;;;7.50;99.90;;;;;;5034785;28;20659;-74
2023/03/29 11:10:23;;;;;;;17.20;9.70;;;7.50;99.90;;;;;;5036234;28;20440;-70
2023/03/29 11:13:20;;;;;;;11.70;10.20;;;7.40;99.90;;;;;;5034489;28;20392;-73
2023/03/29 11:16:03;;;;;;;10.70;9.60;;;7.40;99.90;;;;;;5033881;28;20426;-72
2023/03/29 11:18:41;;;;;;;11.43;9.30;;;7.50;99.90;;;;;;5036445;28;20428;-73
2023/03/29 11:21:36;;;;;;;12.10;10.80;;;7.50;99.90;;;;;;5036554;28;20453;-70
2023/03/29 11:24:14;;;;;;;12.13;8.83;;;7.50;99.90;;;;;;5049796;28;20762;-71
2023/03/29 11:27:15;;;;;;;14.10;10.60;;;7.50;99.90;;;;;;5050302;28;20378;-74
2023/03/29 11:29:59;;;;;;;11.13;9.37;;;7.70;99.90;;;;;;5032359;28;20418;-71
2023/03/29 11:32:54;;;;;;;11.10;8.70;;;7.80;99.90;;;;;;5033440;28;20429;-73
2023/03/29 11:35:23;;;;;;;19.57;9.57;;;8.00;99.90;;;;;;5034194;28;20399;-71
2023/03/29 11:38:12;;;;;;;12.20;8.90;;;8.20;99.90;;;;;;5034205;28;20414;-71
2023/03/29 11:40:51;;;;;;;11.07;9.13;;;8.20;99.90;;;;;;5051559;28;20450;-73
2023/03/29 11:43:34;;;;;;;12.50;9.60;;;8.10;99.90;;;;;;5053251;28;20418;-70
2023/03/29 11:46:16;;;;;;;14.50;9.97;;;8.20;99.90;;;;;;5053820;28;20915;-73
2023/03/29 11:49:18;;;;;;;14.83;10.00;;;8.20;99.90;;;;;;5053832;28;20483;-74
2023/03/29 11:51:54;;;;;;;11.43;10.00;;;8.30;99.90;;;;;;5043209;28;20470;-72
2023/03/29 11:54:26;;;;;;;17.93;10.87;;;8.30;99.90;;;;;;5041550;28;20833;-73
2023/03/29 11:56:58;;;;;;;12.93;9.80;;;8.30;99.90;;;;;;5048574;28;20774;-72
2023/03/29 11:59:36;;;;;;;10.47;9.47;;;8.30;99.90;;;;;;5045020;28;20762;-75
2023/03/29 12:02:23;;;;;;;12.87;9.30;;;8.40;99.90;;;;;;5032659;28;20453;-71
2023/03/29 12:04:51;;;;;;;14.80;10.20;;;8.30;99.90;;;;;;5033616;28;20392;-71
2023/03/29 12:07:55;;;;;;;15.57;10.43;;;8.20;99.90;;;;;;5033100;28;20402;-72
2023/03/29 12:10:25;;;;;;;11.43;10.10;;;8.20;99.90;;;;;;5031417;28;20971;-73
2023/03/29 12:13:02;;;;;;;12.50;10.37;;;8.20;99.90;;;;;;5032843;28;20782;-71
2023/03/29 12:15:50;;;;;;;21.57;11.77;;;8.20;99.90;;;;;;5033361;28;20730;-71
2023/03/29 12:18:25;;;;;;;12.43;9.53;;;8.20;99.90;;;;;;5032688;28;20907;-71
2023/03/29 12:20:59;;;;;;;11.93;9.87;;;8.10;99.90;;;;;;5031106;28;20512;-72
2023/03/29 12:23:31;;;;;;;14.83;9.87;;;8.10;99.90;;;;;;5033215;28;20480;-72
2023/03/29 12:26:09;;;;;;;10.47;9.10;;;8.20;99.90;;;;;;5032895;28;20418;-72
2023/03/29 12:28:57;;;;;;;13.33;11.13;;;8.20;99.90;;;;;;5033236;28;21254;-71
2023/03/29 12:31:47;;;;;;;12.93;9.80;;;8.30;99.90;;;;;;5031013;28;20432;-73
2023/03/29 12:34:19;;;;;;;12.40;10.30;;;8.40;99.90;;;;;;5033877;28;20404;-74
2023/03/29 12:36:52;;;;;;;11.97;10.63;;;8.50;99.90;;;;;;5052792;28;20407;-71
2023/03/29 12:39:20;;;;;;;17.90;12.60;;;8.60;99.90;;;;;;5052961;28;20413;-71
2023/03/29 12:41:50;;;;;;;11.90;9.90;;;8.60;99.90;;;;;;5051857;28;20442;-72
2023/03/29 12:44:19;;;;;;;16.00;10.70;;;8.60;99.90;;;;;;5053169;28;20368;-71
2023/03/29 12:46:45;;;;;;;13.30;10.37;;;8.60;99.90;;;;;;5044084;28;20419;-72
2023/03/29 12:49:28;;;;;;;14.33;10.57;;;8.60;99.90;;;;;;5040783;28;20429;-70
2023/03/29 12:51:57;;;;;;;12.87;10.17;;;8.60;99.90;;;;;;5051784;28;20419;-72
2023/03/29 12:54:27;;;;;;;15.80;11.50;;;8.70;99.90;;;;;;5055329;28;20389;-74
2023/03/29 12:57:19;;;;;;;18.50;10.77;;;8.70;99.90;;;;;;5057230;28;20401;-71
2023/03/29 12:59:47;;;;;;;12.53;10.80;;;8.80;99.90;;;;;;5056639;28;20401;-73
2023/03/29 13:02:13;;;;;;;15.17;11.70;;;8.80;99.90;;;;;;5048836;28;20443;-72